Time;durP1;ratioP1;P1;durP2;ratioP2;P2;SDS_P1;SDS_P2;PMS_P1;PMS_P2;Temp;Humidity;BMP_temperature;BMP_pressure;BME280_temperature;BME280_humidity;BME280_pressure;Samples;Min_cycle;Max_cycle;Signal;HPM_P1;HPM_P2
2022/02/23 00:01:31;;;;;;;2.20;0.78;;;8.60;99.90;;;;;;1850506;77;21085;-76
2022/02/23 00:04:00;;;;;;;1.50;0.78;;;8.60;99.90;;;;;;1858335;76;21084;-77
2022/02/23 00:06:27;;;;;;;2.00;0.80;;;8.60;99.90;;;;;;1850586;75;21065;-78
2022/02/23 00:08:55;;;;;;;7.20;0.80;;;8.60;99.90;;;;;;1850606;77;21053;-77
2022/02/23 00:11:22;;;;;;;1.70;0.80;;;8.70;99.90;;;;;;1850681;77;21057;-77
2022/02/23 00:13:49;;;;;;;2.92;0.93;;;8.70;99.90;;;;;;1850810;77;21063;-76
2022/02/23 00:16:17;;;;;;;2.58;0.90;;;8.70;99.90;;;;;;1850852;77;21045;-78
2022/02/23 00:18:44;;;;;;;2.42;0.90;;;8.70;99.90;;;;;;1850854;77;21465;-79
2022/02/23 00:21:12;;;;;;;3.42;0.93;;;8.70;99.90;;;;;;1850806;77;21061;-77
2022/02/23 00:23:39;;;;;;;1.85;0.75;;;8.70;99.90;;;;;;1850680;77;21150;-78
2022/02/23 00:26:07;;;;;;;1.57;0.62;;;8.70;99.90;;;;;;1850781;77;21441;-77
2022/02/23 00:28:34;;;;;;;0.95;0.72;;;8.60;99.90;;;;;;1862083;75;21550;-78
2022/02/23 00:31:01;;;;;;;2.62;1.00;;;8.70;99.90;;;;;;1867335;76;21127;-77
2022/02/23 00:33:29;;;;;;;1.40;0.75;;;8.70;99.90;;;;;;1850771;77;21049;-77
2022/02/23 00:35:56;;;;;;;2.15;0.85;;;8.70;99.90;;;;;;1868343;75;21084;-77
2022/02/23 00:38:23;;;;;;;3.50;0.65;;;8.70;99.90;;;;;;1850911;77;21084;-77
2022/02/23 00:40:51;;;;;;;2.40;0.82;;;8.70;99.90;;;;;;1850684;77;21125;-79
2022/02/23 00:43:18;;;;;;;1.30;0.60;;;8.70;99.90;;;;;;1860605;76;21146;-77
2022/02/23 00:45:45;;;;;;;1.45;0.60;;;8.70;99.90;;;;;;1869407;75;21441;-77
2022/02/23 00:48:14;;;;;;;4.97;0.82;;;8.70;99.90;;;;;;1864858;75;21088;-77
2022/02/23 00:50:41;;;;;;;1.15;0.65;;;8.70;99.90;;;;;;1850834;77;21111;-77
2022/02/23 00:53:08;;;;;;;1.57;0.70;;;8.70;99.90;;;;;;1850669;77;21049;-77
2022/02/23 00:55:36;;;;;;;2.33;0.80;;;8.60;99.90;;;;;;1850714;75;21166;-77
2022/02/23 00:58:03;;;;;;;3.30;1.00;;;8.60;99.90;;;;;;1850690;77;21118;-77
2022/02/23 01:00:30;;;;;;;3.08;0.70;;;8.60;99.90;;;;;;1850839;77;21053;-76
2022/02/23 01:02:58;;;;;;;5.20;1.02;;;8.60;99.90;;;;;;1850943;77;21118;-79
2022/02/23 01:05:25;;;;;;;2.98;0.80;;;8.50;99.90;;;;;;1851125;77;21061;-77
2022/02/23 01:07:52;;;;;;;1.10;0.68;;;8.50;99.90;;;;;;1850308;75;21057;-76
2022/02/23 01:10:20;;;;;;;0.98;0.68;;;8.50;99.90;;;;;;1850492;77;21472;-77
2022/02/23 01:12:47;;;;;;;2.62;0.62;;;8.40;99.90;;;;;;1865869;75;21087;-77
2022/02/23 01:15:15;;;;;;;1.52;0.80;;;8.50;99.90;;;;;;1868168;75;21088;-76
2022/02/23 01:17:42;;;;;;;2.10;0.60;;;8.50;99.90;;;;;;1850237;77;21461;-76
2022/02/23 01:20:10;;;;;;;2.92;0.85;;;8.50;99.90;;;;;;1850444;77;21029;-78
2022/02/23 01:22:37;;;;;;;3.27;0.75;;;8.40;99.90;;;;;;1850403;77;21228;-77
2022/02/23 01:25:05;;;;;;;2.40;0.90;;;8.50;99.90;;;;;;1850208;77;21433;-77
2022/02/23 01:27:32;;;;;;;1.07;0.50;;;8.50;99.90;;;;;;1850207;77;21044;-77
2022/02/23 01:30:00;;;;;;;2.90;0.80;;;8.50;99.90;;;;;;1850338;77;21056;-79
2022/02/23 01:32:27;;;;;;;1.85;0.80;;;8.50;99.90;;;;;;1850291;77;21119;-78
2022/02/23 01:34:54;;;;;;;2.80;0.78;;;8.50;99.90;;;;;;1850405;77;21513;-78
2022/02/23 01:37:21;;;;;;;0.95;0.60;;;8.50;99.90;;;;;;1850224;77;21041;-80
2022/02/23 01:39:49;;;;;;;1.47;0.68;;;8.50;99.90;;;;;;1854175;75;21477;-78
2022/02/23 01:42:17;;;;;;;2.55;0.82;;;8.40;99.90;;;;;;1850212;77;21056;-81
2022/02/23 01:44:44;;;;;;;2.35;0.95;;;8.30;99.90;;;;;;1850400;77;21181;-78
2022/02/23 01:47:12;;;;;;;1.95;1.00;;;8.30;99.90;;;;;;1850344;77;21036;-78
2022/02/23 01:49:39;;;;;;;2.25;0.88;;;8.30;99.90;;;;;;1850438;77;21044;-77
2022/02/23 01:52:06;;;;;;;4.00;0.85;;;8.30;99.90;;;;;;1850434;77;21130;-77
2022/02/23 01:54:34;;;;;;;3.05;0.80;;;8.30;99.90;;;;;;1850463;77;21485;-77
2022/02/23 01:57:01;;;;;;;2.83;0.70;;;8.30;99.90;;;;;;1850328;77;21450;-77
2022/02/23 01:59:28;;;;;;;2.80;0.65;;;8.10;99.90;;;;;;1850298;77;21022;-77
2022/02/23 02:01:56;;;;;;;4.00;0.85;;;7.80;99.90;;;;;;1850271;77;21049;-75
2022/02/23 02:04:23;;;;;;;3.05;0.70;;;7.30;99.90;;;;;;1850434;77;21057;-76
2022/02/23 02:06:51;;;;;;;4.97;1.20;;;7.00;99.90;;;;;;1850406;77;21102;-75
2022/02/23 02:09:19;;;;;;;10.65;0.98;;;6.70;99.90;;;;;;1850343;77;21126;-75
2022/02/23 02:11:46;;;;;;;5.20;1.00;;;6.60;99.90;;;;;;1850331;77;21151;-75
2022/02/23 02:14:13;;;;;;;3.95;1.10;;;6.50;99.90;;;;;;1850519;77;21208;-74
2022/02/23 02:16:40;;;;;;;3.52;0.80;;;6.40;99.90;;;;;;1850349;77;21029;-75
2022/02/23 02:19:08;;;;;;;5.00;1.35;;;6.40;99.90;;;;;;1858082;76;21084;-74
2022/02/23 02:21:53;;;;;;;2.30;1.00;;;6.20;99.90;;;;;;1850282;76;21158;-75
2022/02/23 02:24:27;;;;;;;6.33;1.00;;;6.20;99.90;;;;;;1849942;77;21044;-75
2022/02/23 02:26:55;;;;;;;6.20;1.00;;;6.10;99.90;;;;;;1850427;77;21074;-77
2022/02/23 02:29:22;;;;;;;3.50;0.80;;;6.00;99.90;;;;;;1850333;77;21446;-76
2022/02/23 02:31:51;;;;;;;5.72;1.27;;;6.00;99.90;;;;;;1850340;77;21052;-76
2022/02/23 02:34:19;;;;;;;1.75;1.00;;;6.10;99.90;;;;;;1850413;77;21143;-76
2022/02/23 02:36:49;;;;;;;4.08;1.35;;;6.00;99.90;;;;;;1850367;77;21551;-77
2022/02/23 02:39:17;;;;;;;5.10;1.00;;;5.90;99.90;;;;;;1825500;77;21057;-76
2022/02/23 02:41:45;;;;;;;2.35;0.90;;;6.00;99.90;;;;;;1850331;77;21536;-77
2022/02/23 02:44:12;;;;;;;3.95;1.05;;;6.00;99.90;;;;;;1850338;77;21127;-77
2022/02/23 02:46:39;;;;;;;6.60;1.32;;;6.00;99.90;;;;;;1862088;76;21168;-77
2022/02/23 02:49:07;;;;;;;4.42;1.20;;;6.00;99.90;;;;;;1850262;77;21091;-77
2022/02/23 02:51:35;;;;;;;2.87;1.05;;;6.00;99.90;;;;;;1850598;77;21091;-79
2022/02/23 02:54:02;;;;;;;3.08;1.00;;;6.10;99.90;;;;;;1850437;77;21123;-78
2022/02/23 02:56:30;;;;;;;4.87;1.12;;;6.10;99.90;;;;;;1850365;77;21120;-78
2022/02/23 02:58:57;;;;;;;6.28;1.02;;;6.00;99.90;;;;;;1850808;77;21118;-79
2022/02/23 03:01:25;;;;;;;6.22;0.93;;;6.00;99.90;;;;;;1850928;77;21464;-78
2022/02/23 03:03:53;;;;;;;6.15;0.98;;;6.00;99.90;;;;;;1850576;77;21037;-79
2022/02/23 03:06:20;;;;;;;19.73;1.50;;;6.00;99.90;;;;;;1850429;77;21049;-79
2022/02/23 03:08:49;;;;;;;11.70;0.93;;;5.90;99.90;;;;;;1850566;77;21112;-79
2022/02/23 03:11:16;;;;;;;6.70;1.35;;;5.90;99.90;;;;;;1850429;77;21440;-79
2022/02/23 03:13:43;;;;;;;4.50;1.42;;;5.90;99.90;;;;;;1850511;77;21049;-78
2022/02/23 03:16:12;;;;;;;3.52;1.12;;;5.90;99.90;;;;;;1850514;77;21021;-79
2022/02/23 03:18:39;;;;;;;3.12;1.05;;;6.00;99.90;;;;;;1850484;75;21088;-79
2022/02/23 03:21:07;;;;;;;4.08;0.80;;;6.00;99.90;;;;;;1856175;75;21076;-79
2022/02/23 03:23:34;;;;;;;8.08;1.25;;;5.90;99.90;;;;;;1850285;77;21025;-79
2022/02/23 03:26:02;;;;;;;3.67;1.12;;;5.90;99.90;;;;;;1850574;77;21434;-79
2022/02/23 03:28:31;;;;;;;5.62;0.98;;;5.90;99.90;;;;;;1824602;77;21044;-78
2022/02/23 03:31:00;;;;;;;4.95;0.90;;;5.90;99.90;;;;;;1850299;77;21489;-79
2022/02/23 03:33:27;;;;;;;6.30;1.30;;;5.90;99.90;;;;;;1849611;77;21040;-77
2022/02/23 03:35:54;;;;;;;4.60;1.45;;;5.90;99.90;;;;;;1850364;77;21143;-79
2022/02/23 03:38:21;;;;;;;4.17;1.00;;;5.80;99.90;;;;;;1850347;77;21065;-78
2022/02/23 03:40:49;;;;;;;4.47;1.60;;;5.70;99.90;;;;;;1850306;77;21051;-79
2022/02/23 03:43:19;;;;;;;6.53;1.60;;;5.80;99.90;;;;;;1855195;76;21084;-78
2022/02/23 03:45:46;;;;;;;7.20;1.70;;;5.80;99.90;;;;;;1874437;76;21159;-78
2022/02/23 03:48:14;;;;;;;4.42;1.55;;;5.70;99.90;;;;;;1859400;75;21089;-78
2022/02/23 03:50:41;;;;;;;7.08;2.35;;;5.60;99.90;;;;;;1858129;76;21061;-77
2022/02/23 03:53:08;;;;;;;7.67;1.35;;;5.60;99.90;;;;;;1876198;75;21081;-78
2022/02/23 03:55:36;;;;;;;3.80;1.20;;;5.40;99.90;;;;;;1867127;76;21200;-78
2022/02/23 03:58:03;;;;;;;5.95;1.60;;;5.40;99.90;;;;;;1850287;77;21168;-78
2022/02/23 04:00:30;;;;;;;9.65;1.22;;;5.40;99.90;;;;;;1850224;77;21535;-78
2022/02/23 04:02:58;;;;;;;5.65;1.30;;;5.30;99.90;;;;;;1850415;77;21018;-77
2022/02/23 04:05:25;;;;;;;2.58;0.90;;;5.20;99.90;;;;;;1850379;77;21100;-78
2022/02/23 04:07:53;;;;;;;3.83;1.12;;;5.10;99.90;;;;;;1850484;77;21041;-78
2022/02/23 04:10:21;;;;;;;3.50;0.95;;;5.00;99.90;;;;;;1869099;76;21089;-78
2022/02/23 04:12:48;;;;;;;6.15;1.30;;;4.80;99.90;;;;;;1850342;77;21084;-78
2022/02/23 04:15:15;;;;;;;3.45;1.27;;;4.70;99.90;;;;;;1850365;77;21096;-78
2022/02/23 04:17:43;;;;;;;4.65;1.42;;;4.60;99.90;;;;;;1850393;77;21049;-78
2022/02/23 04:20:10;;;;;;;3.87;1.10;;;4.60;99.90;;;;;;1850374;77;21139;-78
2022/02/23 04:22:38;;;;;;;6.35;1.10;;;4.70;99.90;;;;;;1850313;77;21057;-78
2022/02/23 04:25:05;;;;;;;5.33;1.75;;;4.70;99.90;;;;;;1858363;76;21078;-77
2022/02/23 04:27:33;;;;;;;5.72;1.50;;;4.80;99.90;;;;;;1869422;75;21488;-78
2022/02/23 04:30:00;;;;;;;5.67;1.30;;;4.70;99.90;;;;;;1850323;77;21143;-77
2022/02/23 04:32:27;;;;;;;6.22;1.42;;;4.70;99.90;;;;;;1855554;76;21057;-78
2022/02/23 04:34:54;;;;;;;13.30;1.70;;;4.70;99.90;;;;;;1850393;77;21114;-77
2022/02/23 04:37:25;;;;;;;3.67;1.20;;;4.80;99.90;;;;;;1850510;77;21106;-78
2022/02/23 04:39:51;;;;;;;5.73;1.43;;;4.80;99.90;;;;;;1850605;76;21422;-77
2022/02/23 04:42:19;;;;;;;5.30;1.57;;;4.90;99.90;;;;;;1850418;77;21068;-77
2022/02/23 04:44:46;;;;;;;3.83;1.47;;;4.90;99.90;;;;;;1850309;77;21202;-78
2022/02/23 04:47:14;;;;;;;7.15;1.42;;;4.90;99.90;;;;;;1850306;77;21432;-78
2022/02/23 04:49:41;;;;;;;2.47;0.95;;;4.90;99.90;;;;;;1853304;75;21587;-79
2022/02/23 04:52:09;;;;;;;3.72;1.25;;;5.00;99.90;;;;;;1850370;77;21034;-78
2022/02/23 04:54:37;;;;;;;10.35;1.70;;;5.00;99.90;;;;;;1859299;76;21123;-78
2022/02/23 04:57:05;;;;;;;9.75;1.47;;;5.00;99.90;;;;;;1850399;77;21158;-78
2022/02/23 04:59:32;;;;;;;5.75;1.65;;;4.90;99.90;;;;;;1850375;77;21030;-78
2022/02/23 05:01:59;;;;;;;5.30;1.80;;;4.90;99.90;;;;;;1856176;76;21085;-78
2022/02/23 05:04:27;;;;;;;10.13;1.95;;;5.00;99.90;;;;;;1850236;77;21237;-78
2022/02/23 05:06:54;;;;;;;8.50;2.85;;;4.90;99.90;;;;;;1850409;77;21045;-78
2022/02/23 05:09:21;;;;;;;7.12;1.98;;;4.80;99.90;;;;;;1850237;77;21437;-78
2022/02/23 05:11:49;;;;;;;4.70;1.60;;;4.80;99.90;;;;;;1850421;77;21122;-78
2022/02/23 05:14:16;;;;;;;5.42;1.65;;;4.80;99.90;;;;;;1874057;76;21138;-78
2022/02/23 05:16:43;;;;;;;5.55;1.25;;;4.70;99.90;;;;;;1873445;75;21178;-78
2022/02/23 05:19:11;;;;;;;5.80;1.37;;;4.70;99.90;;;;;;1852363;76;21166;-78
2022/02/23 05:21:38;;;;;;;3.95;1.47;;;4.60;99.90;;;;;;1850455;77;21422;-79
2022/02/23 05:24:05;;;;;;;5.95;1.50;;;4.50;99.90;;;;;;1850514;77;21154;-78
2022/02/23 05:26:33;;;;;;;7.45;1.42;;;4.50;99.90;;;;;;1850455;77;21061;-78
2022/02/23 05:29:00;;;;;;;5.40;1.57;;;4.40;99.90;;;;;;1863333;76;21152;-78
2022/02/23 05:31:27;;;;;;;4.22;1.32;;;4.40;99.90;;;;;;1850360;77;21025;-78
2022/02/23 05:33:54;;;;;;;7.70;1.82;;;4.50;99.90;;;;;;1850373;77;21049;-78
2022/02/23 05:36:22;;;;;;;9.88;2.27;;;4.40;99.90;;;;;;1850408;77;21044;-78
2022/02/23 05:38:49;;;;;;;4.85;1.57;;;4.40;99.90;;;;;;1855537;75;21561;-78
2022/02/23 05:41:16;;;;;;;5.58;1.70;;;4.30;99.90;;;;;;1850220;76;21129;-78
2022/02/23 05:43:44;;;;;;;4.75;2.10;;;4.30;99.90;;;;;;1850387;77;21083;-78
2022/02/23 05:46:11;;;;;;;9.40;2.65;;;4.20;99.90;;;;;;1850366;77;21049;-79
2022/02/23 05:48:39;;;;;;;3.67;2.27;;;4.10;99.90;;;;;;1850323;77;21080;-79
2022/02/23 05:51:06;;;;;;;6.80;2.25;;;4.00;99.90;;;;;;1850314;77;21149;-79
2022/02/23 05:53:35;;;;;;;3.90;2.35;;;3.90;99.90;;;;;;1824432;77;21057;-80
2022/02/23 05:56:04;;;;;;;5.10;1.67;;;3.90;99.90;;;;;;1850568;77;21562;-80
2022/02/23 05:58:31;;;;;;;8.65;1.62;;;3.90;99.90;;;;;;1850360;77;21076;-83
2022/02/23 06:00:58;;;;;;;7.12;1.98;;;3.90;99.90;;;;;;1850605;77;21049;-80
2022/02/23 06:03:26;;;;;;;10.28;2.10;;;3.90;99.90;;;;;;1854417;75;21097;-79
2022/02/23 06:05:53;;;;;;;13.45;2.27;;;3.90;99.90;;;;;;1858854;75;21166;-78
2022/02/23 06:08:20;;;;;;;7.55;1.90;;;3.80;99.90;;;;;;1850592;77;21126;-76
2022/02/23 06:10:47;;;;;;;5.12;1.70;;;3.80;99.90;;;;;;1852298;75;21558;-77
2022/02/23 06:13:15;;;;;;;9.55;2.00;;;3.70;99.90;;;;;;1850362;77;21204;-80
2022/02/23 06:15:42;;;;;;;6.12;1.85;;;3.60;99.90;;;;;;1850432;77;21021;-80
2022/02/23 06:18:09;;;;;;;5.08;1.87;;;3.70;99.90;;;;;;1858062;75;21248;-76
2022/02/23 06:20:37;;;;;;;7.87;2.15;;;3.70;99.90;;;;;;1850580;77;21080;-78
2022/02/23 06:23:04;;;;;;;8.10;2.40;;;3.70;99.90;;;;;;1850444;76;21170;-79
2022/02/23 06:25:32;;;;;;;7.60;2.25;;;3.70;99.90;;;;;;1850362;77;21492;-78
2022/02/23 06:28:02;;;;;;;8.15;2.33;;;3.70;99.90;;;;;;1850402;77;21048;-77
2022/02/23 06:30:28;;;;;;;5.42;2.83;;;3.70;99.90;;;;;;1850223;76;21076;-78
2022/02/23 06:32:56;;;;;;;11.15;2.58;;;3.50;99.90;;;;;;1850436;77;21448;-78
2022/02/23 06:35:28;;;;;;;9.00;2.52;;;3.50;99.90;;;;;;1850470;77;21045;-79
2022/02/23 06:37:52;;;;;;;5.90;2.83;;;3.60;99.90;;;;;;1850223;76;21068;-77
2022/02/23 06:40:20;;;;;;;6.58;2.90;;;3.60;99.90;;;;;;1850456;77;21119;-79
2022/02/23 06:42:47;;;;;;;6.35;3.22;;;3.60;99.90;;;;;;1850372;77;21174;-77
2022/02/23 06:45:14;;;;;;;12.33;3.37;;;3.60;99.90;;;;;;1850924;77;21057;-78
2022/02/23 06:47:42;;;;;;;10.45;3.17;;;3.60;99.90;;;;;;1850882;77;21130;-77
2022/02/23 06:50:09;;;;;;;11.93;3.27;;;3.80;99.90;;;;;;1852577;76;21240;-79
2022/02/23 06:52:37;;;;;;;8.58;3.15;;;3.90;99.90;;;;;;1850555;77;21165;-78
2022/02/23 06:55:04;;;;;;;12.03;3.42;;;3.90;99.90;;;;;;1857572;76;21174;-78
2022/02/23 06:57:39;;;;;;;12.30;3.55;;;4.00;99.90;;;;;;1850375;77;21030;-77
2022/02/23 07:00:07;;;;;;;7.40;3.20;;;4.00;99.90;;;;;;1850416;77;21589;-77
2022/02/23 07:02:35;;;;;;;6.87;2.80;;;4.00;99.90;;;;;;1850469;77;21056;-76
2022/02/23 07:05:03;;;;;;;6.85;2.65;;;4.10;99.90;;;;;;1850476;77;21056;-78
2022/02/23 07:07:31;;;;;;;5.00;2.10;;;4.20;99.90;;;;;;1852303;75;21073;-77
2022/02/23 07:10:00;;;;;;;8.68;2.83;;;4.20;99.90;;;;;;1850439;77;21029;-77
2022/02/23 07:12:27;;;;;;;6.33;3.12;;;4.20;99.90;;;;;;1850349;77;21100;-77
2022/02/23 07:14:54;;;;;;;7.17;2.72;;;4.20;99.90;;;;;;1875641;75;21464;-77
2022/02/23 07:17:22;;;;;;;6.60;3.08;;;4.20;99.90;;;;;;1869998;75;21089;-78
2022/02/23 07:19:49;;;;;;;9.43;3.72;;;4.20;99.90;;;;;;1850352;77;21052;-79
2022/02/23 07:22:16;;;;;;;7.67;3.27;;;4.20;99.90;;;;;;1850377;77;21093;-79
2022/02/23 07:24:44;;;;;;;9.83;3.12;;;4.10;99.90;;;;;;1850370;76;21054;-76
2022/02/23 07:27:12;;;;;;;7.55;3.25;;;4.20;99.90;;;;;;1850397;77;21055;-75
2022/02/23 07:29:39;;;;;;;13.30;3.37;;;4.30;99.90;;;;;;1850340;77;21056;-80
2022/02/23 07:32:07;;;;;;;8.40;3.02;;;4.30;99.90;;;;;;1850488;77;21666;-75
2022/02/23 07:34:37;;;;;;;5.62;2.70;;;4.20;99.90;;;;;;1850508;77;21130;-75
2022/02/23 07:37:03;;;;;;;9.83;3.25;;;4.30;99.90;;;;;;1850096;77;21142;-76
2022/02/23 07:39:31;;;;;;;10.03;2.98;;;4.40;99.90;;;;;;1850466;77;21045;-75
2022/02/23 07:41:58;;;;;;;8.48;2.47;;;4.40;99.90;;;;;;1850298;77;21060;-75
2022/02/23 07:44:26;;;;;;;6.55;2.70;;;4.60;99.90;;;;;;1850414;77;21060;-79
2022/02/23 07:46:56;;;;;;;12.30;4.45;;;4.60;99.90;;;;;;1850350;76;21215;-78
2022/02/23 07:49:23;;;;;;;7.78;3.30;;;4.60;99.90;;;;;;1850483;77;21084;-77
2022/02/23 07:51:55;;;;;;;6.80;3.58;;;4.60;99.90;;;;;;1850406;77;21048;-77
2022/02/23 07:54:29;;;;;;;16.20;4.22;;;4.70;99.90;;;;;;1850619;76;21081;-78
2022/02/23 07:56:54;;;;;;;9.00;4.22;;;4.80;99.90;;;;;;1849071;76;21068;-78
2022/02/23 07:59:23;;;;;;;11.83;4.05;;;4.90;99.90;;;;;;1861761;75;21070;-79
2022/02/23 08:01:52;;;;;;;14.77;3.97;;;4.90;99.90;;;;;;1856673;76;21438;-78
2022/02/23 08:04:20;;;;;;;12.45;4.28;;;5.00;99.90;;;;;;1858707;76;21751;-80
2022/02/23 08:06:48;;;;;;;9.70;4.12;;;5.10;99.90;;;;;;1864085;75;21061;-79
2022/02/23 08:09:15;;;;;;;9.68;3.77;;;5.20;99.90;;;;;;1850272;77;21053;-78
2022/02/23 08:11:43;;;;;;;13.55;3.47;;;5.50;99.90;;;;;;1855957;76;21538;-78
2022/02/23 08:14:11;;;;;;;9.73;2.90;;;5.50;99.90;;;;;;1850189;77;21543;-78
2022/02/23 08:19:34;;;;;;;6.25;2.42;;;5.80;99.90;;;;;;1850356;77;21167;-78
2022/02/23 08:22:13;;;;;;;11.68;2.85;;;6.00;99.90;;;;;;1867071;75;21100;-78
2022/02/23 08:24:44;;;;;;;8.28;2.65;;;6.20;99.90;;;;;;1850491;77;21030;-79
2022/02/23 08:27:14;;;;;;;9.20;2.65;;;6.20;99.90;;;;;;1850324;77;21424;-78
2022/02/23 08:29:41;;;;;;;7.62;2.15;;;6.40;99.90;;;;;;1850476;77;21041;-79
2022/02/23 08:32:10;;;;;;;5.00;1.90;;;6.70;99.90;;;;;;1850441;76;21441;-78
2022/02/23 08:34:39;;;;;;;5.70;2.00;;;6.60;99.90;;;;;;1850469;77;21088;-79
2022/02/23 08:37:07;;;;;;;6.60;2.47;;;6.50;99.90;;;;;;1850311;77;21108;-79
2022/02/23 08:39:35;;;;;;;8.40;2.85;;;6.80;99.90;;;;;;1850332;77;21402;-80
2022/02/23 08:42:04;;;;;;;8.08;2.58;;;7.00;99.90;;;;;;1850293;77;21072;-80
2022/02/23 08:44:31;;;;;;;6.58;2.45;;;7.10;99.90;;;;;;1859762;76;21272;-80
2022/02/23 08:46:59;;;;;;;10.58;2.17;;;7.20;99.90;;;;;;1858130;76;21085;-80
2022/02/23 08:49:26;;;;;;;9.83;2.70;;;7.50;99.90;;;;;;1853138;75;21081;-82
2022/02/23 08:51:53;;;;;;;6.78;3.12;;;7.60;99.90;;;;;;1863929;76;21441;-80
2022/02/23 08:54:21;;;;;;;8.23;3.02;;;7.60;99.90;;;;;;1850360;77;21425;-78
2022/02/23 08:56:48;;;;;;;9.83;2.90;;;8.00;99.90;;;;;;1859300;76;21162;-77
2022/02/23 08:59:15;;;;;;;11.20;3.12;;;8.20;99.90;;;;;;1850090;75;21108;-78
2022/02/23 09:01:43;;;;;;;11.60;2.62;;;8.60;99.90;;;;;;1869114;75;21566;-80
2022/02/23 09:04:11;;;;;;;13.05;2.83;;;8.40;99.90;;;;;;1850391;77;21460;-81
2022/02/23 09:06:41;;;;;;;10.03;2.90;;;8.50;99.90;;;;;;1850277;75;21081;-81
2022/02/23 09:09:14;;;;;;;6.97;2.60;;;8.60;99.90;;;;;;1854288;75;21529;-83
2022/02/23 09:11:43;;;;;;;10.20;2.77;;;8.80;99.90;;;;;;1850391;77;21034;-81
2022/02/23 09:14:11;;;;;;;6.67;2.57;;;9.20;99.90;;;;;;1855868;75;21096;-79
2022/02/23 09:16:38;;;;;;;9.93;3.08;;;9.40;99.90;;;;;;1850900;77;21476;-78
2022/02/23 09:19:06;;;;;;;11.97;3.05;;;9.70;99.90;;;;;;1850665;77;21056;-81
2022/02/23 09:21:33;;;;;;;9.78;3.17;;;10.10;99.90;;;;;;1857389;75;21523;-79
2022/02/23 09:24:01;;;;;;;11.03;3.27;;;10.10;99.90;;;;;;1850249;77;21048;-81
2022/02/23 09:26:29;;;;;;;8.90;3.12;;;9.90;99.90;;;;;;1867011;75;21493;-81
2022/02/23 09:29:00;;;;;;;8.13;2.98;;;10.20;99.90;;;;;;1850413;77;21150;-79
2022/02/23 09:31:28;;;;;;;11.85;2.30;;;10.30;99.90;;;;;;1850207;77;21496;-79
2022/02/23 09:33:56;;;;;;;13.50;3.25;;;10.20;99.90;;;;;;1850389;77;21092;-83
2022/02/23 09:36:23;;;;;;;9.20;2.80;;;10.20;99.90;;;;;;1850221;77;21029;-80
2022/02/23 09:38:52;;;;;;;7.40;2.65;;;10.40;99.90;;;;;;1850091;77;21511;-80
2022/02/23 09:41:21;;;;;;;7.87;2.62;;;10.50;99.90;;;;;;1857924;75;21159;-80
2022/02/23 09:43:54;;;;;;;7.05;2.42;;;10.70;99.90;;;;;;1850405;77;21071;-81
2022/02/23 09:46:21;;;;;;;6.35;2.00;;;10.40;99.90;;;;;;1849917;77;21118;-80
2022/02/23 09:48:49;;;;;;;8.80;2.37;;;10.90;99.90;;;;;;1859994;76;21161;-79
2022/02/23 09:51:17;;;;;;;8.08;2.35;;;11.10;99.90;;;;;;1850786;76;21197;-80
2022/02/23 09:53:47;;;;;;;11.95;2.92;;;11.20;99.90;;;;;;1850215;77;21064;-80
2022/02/23 09:56:17;;;;;;;6.55;1.90;;;11.10;99.90;;;;;;1850328;77;21146;-78
2022/02/23 09:58:46;;;;;;;12.75;2.35;;;11.40;99.90;;;;;;1850200;77;21239;-79
2022/02/23 10:01:14;;;;;;;11.53;2.50;;;11.80;99.90;;;;;;1850217;77;21464;-79
2022/02/23 10:03:44;;;;;;;9.85;2.50;;;11.70;99.90;;;;;;1850210;77;21069;-79
2022/02/23 10:06:33;;;;;;;6.80;2.07;;;12.10;99.90;;;;;;1824863;77;21072;-79
2022/02/23 10:09:05;;;;;;;6.90;2.45;;;12.50;99.90;;;;;;1852124;76;21160;-81
2022/02/23 10:11:36;;;;;;;5.97;2.42;;;12.70;99.90;;;;;;1863366;75;21099;-81
2022/02/23 10:14:09;;;;;;;14.15;2.35;;;12.20;99.90;;;;;;1850488;76;21511;-82
2022/02/23 10:16:39;;;;;;;6.15;2.02;;;12.50;99.90;;;;;;1850561;77;21436;-81
2022/02/23 10:19:12;;;;;;;4.95;1.82;;;12.60;99.90;;;;;;1859485;75;21152;-80
2022/02/23 10:21:48;;;;;;;7.10;2.05;;;13.40;99.90;;;;;;1856837;76;21158;-81
2022/02/23 10:24:33;;;;;;;7.67;2.35;;;13.50;99.90;;;;;;1850306;77;21052;-81
2022/02/23 10:27:08;;;;;;;11.33;2.22;;;13.10;99.90;;;;;;1850519;77;21131;-80
2022/02/23 10:29:54;;;;;;;6.53;2.00;;;13.00;99.90;;;;;;1850572;77;21125;-81
2022/02/23 10:32:25;;;;;;;7.70;2.25;;;13.40;99.90;;;;;;1850499;77;21076;-80
2022/02/23 10:34:55;;;;;;;8.00;1.82;;;12.90;99.90;;;;;;1850484;77;21135;-81
2022/02/23 10:37:26;;;;;;;5.00;2.25;;;12.90;99.90;;;;;;1850688;76;21056;-81
2022/02/23 10:39:57;;;;;;;7.10;2.22;;;13.70;99.90;;;;;;1863342;75;21166;-81
2022/02/23 10:42:26;;;;;;;;;;;14.00;99.90;;;;;;1860885;75;21092;-79
2022/02/23 10:44:54;;;;;;;10.05;2.08;;;13.90;99.90;;;;;;1850553;77;20385;-82
2022/02/23 10:47:26;;;;;;;6.15;2.20;;;13.60;99.90;;;;;;1850594;77;21041;-82
2022/02/23 10:50:05;;;;;;;5.45;2.05;;;14.10;99.90;;;;;;1850621;77;21043;-81
2022/02/23 10:52:33;;;;;;;8.55;2.00;;;14.50;99.90;;;;;;1850938;77;21037;-84
2022/02/23 10:55:22;;;;;;;5.25;1.72;;;15.30;99.90;;;;;;1851162;77;21119;-80
2022/02/23 10:57:53;;;;;;;8.40;2.10;;;15.10;99.90;;;;;;1856554;76;21080;-82
2022/02/23 11:00:23;;;;;;;4.83;1.67;;;14.70;99.90;;;;;;1863174;76;21096;-82
2022/02/23 11:02:51;;;;;;;4.33;1.60;;;14.80;99.90;;;;;;1854400;75;21044;-83
2022/02/23 11:05:31;;;;;;;5.25;1.80;;;15.00;99.90;;;;;;1851088;77;21108;-82
2022/02/23 11:07:49;;;;;;;;;;;15.00;99.90;;;;;;1849710;77;21076;-81
2022/02/23 11:10:19;;;;;;;7.40;2.87;;;13.80;99.90;;;;;;1847824;77;20190;-84
2022/02/23 11:12:54;;;;;;;11.73;2.47;;;13.40;99.90;;;;;;1872927;75;21092;-82
2022/02/23 11:15:23;;;;;;;4.75;1.67;;;14.30;99.90;;;;;;1829257;76;21076;-83
2022/02/23 11:17:52;;;;;;;10.75;1.80;;;14.80;99.90;;;;;;1858186;75;21076;-81
2022/02/23 11:20:28;;;;;;;6.27;1.77;;;14.80;99.90;;;;;;1850851;77;21052;-82
2022/02/23 11:23:01;;;;;;;5.03;1.92;;;15.00;99.90;;;;;;1850636;76;21073;-81
2022/02/23 11:25:36;;;;;;;10.75;1.90;;;15.30;99.90;;;;;;1850797;77;21488;-80
2022/02/23 11:28:06;;;;;;;7.45;1.80;;;15.90;99.90;;;;;;1826086;77;21457;-83
2022/02/23 11:30:34;;;;;;;10.10;2.05;;;15.50;99.90;;;;;;1858021;76;21057;-83
2022/02/23 11:33:03;;;;;;;9.20;2.45;;;16.20;99.90;;;;;;1875217;75;21079;-82
2022/02/23 11:35:49;;;;;;;9.58;1.80;;;16.10;99.90;;;;;;1850744;76;21146;-83
2022/02/23 11:38:17;;;;;;;8.98;1.87;;;15.40;99.90;;;;;;1826095;77;21058;-84
2022/02/23 11:40:54;;;;;;;7.55;2.40;;;16.00;99.90;;;;;;1825123;77;21072;-83
2022/02/23 11:43:36;;;;;;;7.30;1.77;;;15.60;99.90;;;;;;1858750;76;21162;-84
2022/02/23 11:46:06;;;;;;;7.55;2.00;;;16.10;99.90;;;;;;1851088;77;21060;-84
2022/02/23 11:48:50;;;;;;;9.05;2.00;;;16.10;99.90;;;;;;1850928;77;21080;-82
2022/02/23 11:51:26;;;;;;;8.25;2.10;;;16.10;99.90;;;;;;1850540;77;21433;-83
2022/02/23 11:53:54;;;;;;;7.30;1.60;;;15.60;99.90;;;;;;1839707;76;21480;-83
2022/02/23 11:56:21;;;;;;;6.08;1.82;;;15.00;99.90;;;;;;1851140;77;21049;-83
2022/02/23 11:58:52;;;;;;;5.25;1.98;;;14.80;99.90;;;;;;1851215;77;21134;-83
2022/02/23 12:01:21;;;;;;;8.35;1.67;;;15.20;99.90;;;;;;1825531;77;21099;-82
2022/02/23 12:04:13;;;;;;;7.67;1.82;;;16.00;99.90;;;;;;1859532;76;21174;-83
2022/02/23 12:07:15;;;;;;;4.53;1.70;;;16.10;99.90;;;;;;1859199;75;21085;-83
2022/02/23 12:10:00;;;;;;;5.65;1.50;;;16.00;99.90;;;;;;1867198;75;21173;-83
2022/02/23 12:12:39;;;;;;;6.85;1.62;;;16.30;99.90;;;;;;1865270;75;21081;-82
2022/02/23 12:15:21;;;;;;;9.28;1.42;;;15.30;99.90;;;;;;1851334;77;21080;-82
2022/02/23 12:17:50;;;;;;;5.65;1.65;;;15.50;99.90;;;;;;1851303;77;21170;-84
2022/02/23 12:20:37;;;;;;;12.58;1.98;;;15.60;99.90;;;;;;1851445;75;21155;-84
2022/02/23 12:23:07;;;;;;;5.37;1.47;;;16.20;99.90;;;;;;1852252;76;21527;-84
2022/02/23 12:26:11;;;;;;;5.15;1.67;;;15.70;99.90;;;;;;1851811;77;21072;-83
2022/02/23 12:28:41;;;;;;;10.93;1.67;;;16.00;99.90;;;;;;1860072;75;21121;-84
2022/02/23 12:31:21;;;;;;;5.37;1.80;;;17.10;99.90;;;;;;1858717;75;21088;-83
2022/02/23 12:34:05;;;;;;;10.78;1.37;;;17.40;99.90;;;;;;1857357;76;21533;-83
2022/02/23 12:36:50;;;;;;;12.75;1.65;;;17.10;99.90;;;;;;1825444;77;21052;-81
2022/02/23 12:39:19;;;;;;;4.55;1.85;;;17.90;99.90;;;;;;1850329;76;21080;-81
2022/02/23 12:41:48;;;;;;;5.03;1.60;;;17.70;99.90;;;;;;1857155;75;21088;-81
2022/02/23 12:44:20;;;;;;;11.83;1.80;;;17.40;99.90;;;;;;1851046;77;21166;-83
2022/02/23 12:46:53;;;;;;;5.67;1.82;;;17.90;99.90;;;;;;1850965;77;21029;-81
2022/02/23 12:49:21;;;;;;;7.80;1.77;;;17.30;99.90;;;;;;1825015;77;21061;-81
2022/02/23 12:51:49;;;;;;;4.87;1.32;;;16.90;99.90;;;;;;1824980;77;21119;-80
2022/02/23 12:54:23;;;;;;;5.05;1.47;;;16.90;99.90;;;;;;1867745;76;21115;-81
2022/02/23 12:56:52;;;;;;;3.20;1.60;;;17.00;99.90;;;;;;1851005;77;21017;-81
2022/02/23 12:59:32;;;;;;;8.45;1.60;;;17.60;99.90;;;;;;1851144;77;21433;-80
2022/02/23 13:02:02;;;;;;;6.70;1.67;;;17.80;99.90;;;;;;1851729;76;21157;-81
2022/02/23 13:04:32;;;;;;;5.35;1.55;;;18.10;99.90;;;;;;1852064;76;21076;-80
2022/02/23 13:07:02;;;;;;;;;;;18.80;99.90;;;;;;1837104;77;21154;-80